Time;durP1;ratioP1;P1;durP2;ratioP2;P2;SDS_P1;SDS_P2;PMS_P1;PMS_P2;Temp;Humidity;BMP_temperature;BMP_pressure;BME280_temperature;BME280_humidity;BME280_pressure;Samples;Min_cycle;Max_cycle;Signal;HPM_P1;HPM_P2
2023/10/24 00:02:13;;;;;;;23.55;8.57;;;;;;;11.51;100.00;100062.31;5010671;28;20468;-76
2023/10/24 00:04:38;;;;;;;17.30;7.15;;;;;;;11.54;100.00;100062.88;5001471;28;20099;-75
2023/10/24 00:07:03;;;;;;;21.77;7.40;;;;;;;11.56;100.00;100053.84;5019229;28;20028;-76
2023/10/24 00:09:29;;;;;;;19.48;7.28;;;;;;;11.56;100.00;100062.75;5004330;28;20348;-76
2023/10/24 00:11:54;;;;;;;23.73;8.18;;;;;;;11.54;100.00;100060.19;5010616;28;20325;-75
2023/10/24 00:14:19;;;;;;;18.60;7.70;;;;;;;11.57;100.00;100055.50;4995822;28;20446;-75
2023/10/24 00:16:44;;;;;;;16.50;6.93;;;;;;;11.57;100.00;100055.50;5010114;28;20041;-75
2023/10/24 00:19:10;;;;;;;19.45;7.35;;;;;;;11.57;100.00;100052.81;5010303;28;20017;-76
2023/10/24 00:21:35;;;;;;;20.08;7.15;;;;;;;11.55;100.00;100052.97;5010465;28;20375;-75
2023/10/24 00:24:00;;;;;;;18.80;7.03;;;;;;;11.57;100.00;100052.81;5009284;28;20056;-75
2023/10/24 00:26:26;;;;;;;16.75;6.93;;;;;;;11.56;100.00;100051.97;5009338;28;20103;-75
2023/10/24 00:28:51;;;;;;;20.10;7.10;;;;;;;11.57;100.00;100052.81;5024673;28;20521;-71
2023/10/24 00:31:16;;;;;;;19.20;6.78;;;;;;;11.58;100.00;100058.09;5014948;28;20137;-71
2023/10/24 00:33:41;;;;;;;19.60;7.22;;;;;;;11.57;100.00;100051.00;5020308;28;20056;-72
2023/10/24 00:36:07;;;;;;;17.77;6.82;;;;;;;11.56;100.00;100049.28;5026079;28;20066;-72
2023/10/24 00:38:33;;;;;;;19.70;7.28;;;;;;;11.57;100.00;100055.50;5019693;28;20087;-71
2023/10/24 00:40:59;;;;;;;16.83;6.75;;;;;;;11.55;100.00;100050.28;5016998;28;20230;-72
2023/10/24 00:43:24;;;;;;;20.38;7.05;;;;;;;11.56;100.00;100048.44;5027488;28;20041;-72
2023/10/24 00:45:49;;;;;;;18.83;6.95;;;;;;;11.57;100.00;100060.88;5005383;28;20029;-72
2023/10/24 00:48:15;;;;;;;21.17;7.28;;;;;;;11.56;100.00;100061.91;5019757;28;20026;-72
2023/10/24 00:50:41;;;;;;;19.98;7.10;;;;;;;11.54;100.00;100057.50;5019295;28;20022;-73
2023/10/24 00:53:06;;;;;;;16.02;5.60;;;;;;;11.54;100.00;100062.88;5018336;28;20025;-74
2023/10/24 00:55:31;;;;;;;19.92;6.10;;;;;;;11.54;100.00;100064.72;5019410;28;20379;-73
2023/10/24 00:57:59;;;;;;;17.60;6.38;;;;;;;11.51;100.00;100063.16;5021811;28;20032;-72
2023/10/24 01:00:26;;;;;;;15.73;5.95;;;;;;;11.51;100.00;100068.53;5019998;28;20049;-73
2023/10/24 01:02:52;;;;;;;17.65;5.88;;;;;;;11.51;100.00;100063.16;5020399;28;20044;-71
2023/10/24 01:05:18;;;;;;;18.85;6.30;;;;;;;11.51;100.00;100062.31;5021268;28;20052;-71
2023/10/24 01:07:45;;;;;;;16.70;5.57;;;;;;;11.50;100.00;100056.06;5022243;28;20433;-72
2023/10/24 01:10:11;;;;;;;15.32;5.20;;;;;;;11.48;100.00;100058.06;5012583;28;20030;-72
2023/10/24 01:12:37;;;;;;;16.52;5.22;;;;;;;11.47;100.00;100056.34;5021142;28;20033;-72
2023/10/24 01:15:04;;;;;;;17.23;5.38;;;;;;;11.46;100.00;100053.81;5019298;28;20026;-72
2023/10/24 01:17:29;;;;;;;16.38;4.90;;;;;;;11.45;100.00;100061.03;5011415;28;20109;-72
2023/10/24 01:19:54;;;;;;;12.52;4.60;;;;;;;11.44;100.00;100061.16;5015541;28;20029;-71
2023/10/24 01:22:20;;;;;;;14.80;4.70;;;;;;;11.45;100.00;100055.66;5031378;28;20084;-72
2023/10/24 01:24:46;;;;;;;20.15;5.05;;;;;;;11.45;100.00;100055.66;5024540;28;20034;-71
2023/10/24 01:27:14;;;;;;;15.73;5.03;;;;;;;11.43;100.00;100059.47;5012166;28;20026;-72
2023/10/24 01:29:39;;;;;;;11.98;4.30;;;;;;;11.43;100.00;100057.59;5019667;28;20276;-71
2023/10/24 01:32:05;;;;;;;15.77;4.85;;;;;;;11.45;100.00;100065.53;5018979;28;20447;-72
2023/10/24 01:34:30;;;;;;;15.38;4.75;;;;;;;11.44;100.00;100070.09;5013086;28;20049;-72
2023/10/24 01:36:56;;;;;;;12.63;4.18;;;;;;;11.43;100.00;100064.84;5022267;28;20037;-72
2023/10/24 01:39:21;;;;;;;12.38;4.28;;;;;;;11.43;100.00;100071.06;5013014;28;20079;-76
2023/10/24 01:41:46;;;;;;;11.90;4.68;;;;;;;11.43;100.00;100065.69;5012917;28;20029;-75
2023/10/24 01:44:12;;;;;;;12.55;4.32;;;;;;;11.43;100.00;100060.31;5009081;28;20026;-75
2023/10/24 01:46:37;;;;;;;14.45;4.78;;;;;;;11.40;100.00;100055.19;5008818;28;20113;-76
2023/10/24 01:49:02;;;;;;;13.50;4.15;;;;;;;11.42;100.00;100057.75;4998393;28;20065;-75
2023/10/24 01:51:28;;;;;;;12.57;4.63;;;;;;;11.41;100.00;100046.16;5014981;28;20037;-75
2023/10/24 01:53:54;;;;;;;13.93;4.43;;;;;;;11.41;100.00;100043.47;5007820;28;20037;-75
2023/10/24 01:56:19;;;;;;;12.00;4.50;;;;;;;11.40;100.00;100055.19;5005871;28;20147;-76
2023/10/24 01:58:44;;;;;;;13.95;4.55;;;;;;;11.40;100.00;100054.34;5000193;28;20037;-76
2023/10/24 02:01:09;;;;;;;14.55;4.57;;;;;;;11.39;100.00;100058.91;5013818;28;20041;-75
2023/10/24 02:03:35;;;;;;;16.70;5.07;;;;;;;11.40;100.00;100054.34;5006667;28;20049;-75
2023/10/24 02:06:01;;;;;;;15.10;4.80;;;;;;;11.39;100.00;100053.53;5014246;28;20037;-75
2023/10/24 02:08:26;;;;;;;11.88;4.13;;;;;;;11.39;100.00;100053.53;5005858;28;20117;-75
2023/10/24 02:10:52;;;;;;;13.90;4.78;;;;;;;11.36;100.00;100054.63;5008159;28;20117;-76
2023/10/24 02:13:17;;;;;;;13.50;4.40;;;;;;;11.37;100.00;100058.16;5007823;28;20029;-75
2023/10/24 02:15:43;;;;;;;14.60;4.93;;;;;;;11.38;100.00;100059.88;5014235;28;20065;-75
2023/10/24 02:18:08;;;;;;;12.30;4.55;;;;;;;11.35;100.00;100052.09;5008017;28;20038;-75
2023/10/24 02:20:34;;;;;;;11.20;4.47;;;;;;;11.34;100.00;100056.59;5004945;28;20402;-76
2023/10/24 02:22:59;;;;;;;13.68;4.82;;;;;;;11.34;100.00;100061.13;4999557;28;20026;-75
2023/10/24 02:25:25;;;;;;;12.90;4.15;;;;;;;11.34;100.00;100058.44;4992511;28;20038;-75
2023/10/24 02:27:52;;;;;;;12.38;4.38;;;;;;;11.32;100.00;100046.97;5004150;28;20092;-76
2023/10/24 02:30:18;;;;;;;13.80;4.47;;;;;;;11.30;100.00;100049.81;5011790;28;20061;-76
2023/10/24 02:32:43;;;;;;;10.00;3.53;;;;;;;11.29;100.00;100049.91;4984380;28;20064;-75
2023/10/24 02:35:08;;;;;;;11.73;4.15;;;;;;;11.28;100.00;100062.53;5004464;28;20034;-75
2023/10/24 02:37:33;;;;;;;13.93;4.45;;;;;;;11.22;100.00;100056.84;5017125;28;20037;-75
2023/10/24 02:39:59;;;;;;;12.68;4.18;;;;;;;11.21;100.00;100065.91;5016468;28;20013;-75
2023/10/24 02:42:24;;;;;;;13.18;4.47;;;;;;;11.19;100.00;100058.81;5007014;28;20506;-75
2023/10/24 02:44:50;;;;;;;14.88;4.32;;;;;;;11.17;100.00;100060.81;5015868;28;20375;-76
2023/10/24 02:47:15;;;;;;;14.02;4.63;;;;;;;11.16;100.00;100059.09;4993569;28;20037;-76
2023/10/24 02:49:41;;;;;;;11.02;3.88;;;;;;;11.16;100.00;100069.84;5021174;28;20033;-74
2023/10/24 02:52:21;;;;;;;13.75;4.60;;;;;;;11.14;100.00;100076.34;4990455;28;20100;-73
2023/10/24 02:54:46;;;;;;;12.80;4.63;;;;;;;11.12;100.00;100071.09;5026027;28;20159;-73
2023/10/24 02:57:12;;;;;;;13.45;4.20;;;;;;;11.12;100.00;100073.78;5030617;28;20017;-73
2023/10/24 02:59:37;;;;;;;13.23;4.63;;;;;;;11.13;100.00;100074.66;5022730;28;20497;-73
2023/10/24 03:02:02;;;;;;;12.27;4.38;;;;;;;11.11;100.00;100082.00;5026542;28;20041;-73
2023/10/24 03:04:28;;;;;;;13.77;4.55;;;;;;;11.12;100.00;100079.16;5015251;28;20129;-73
2023/10/24 03:06:53;;;;;;;15.88;5.30;;;;;;;11.13;100.00;100088.09;5029463;28;20058;-73
2023/10/24 03:09:18;;;;;;;13.65;4.35;;;;;;;11.12;100.00;100083.72;5026903;28;20057;-73
2023/10/24 03:11:44;;;;;;;13.40;4.78;;;;;;;11.13;100.00;100080.03;5024244;28;20109;-73
2023/10/24 03:14:09;;;;;;;14.23;4.38;;;;;;;11.11;100.00;100088.25;5028790;28;20334;-73
2023/10/24 03:16:34;;;;;;;14.57;5.05;;;;;;;11.10;100.00;100086.53;5024632;28;20052;-73
2023/10/24 03:19:00;;;;;;;15.25;5.05;;;;;;;11.09;100.00;100084.81;5026943;28;20029;-73
2023/10/24 03:21:25;;;;;;;11.65;3.80;;;;;;;11.11;100.00;100087.38;5024362;28;20038;-73
2023/10/24 03:23:50;;;;;;;14.63;4.72;;;;;;;11.10;100.00;100083.84;5026054;28;20041;-73
2023/10/24 03:26:16;;;;;;;15.27;5.20;;;;;;;11.09;100.00;100095.56;5006485;28;20026;-74
2023/10/24 03:28:41;;;;;;;14.02;4.45;;;;;;;11.08;100.00;100077.72;5018653;28;20030;-74
2023/10/24 03:31:08;;;;;;;13.02;4.70;;;;;;;11.08;100.00;100088.47;5026341;28;20044;-73
2023/10/24 03:33:33;;;;;;;14.25;4.28;;;;;;;11.06;100.00;100090.47;5027858;28;20025;-73
2023/10/24 03:36:00;;;;;;;11.07;4.22;;;;;;;11.10;100.00;100091.03;5028322;28;20085;-73
2023/10/24 03:38:26;;;;;;;14.35;5.10;;;;;;;11.08;100.00;100085.78;5035586;28;20050;-73
2023/10/24 03:40:52;;;;;;;11.05;4.32;;;;;;;11.06;100.00;100085.09;5027865;28;20029;-73
2023/10/24 03:43:18;;;;;;;11.82;4.38;;;;;;;11.04;100.00;100086.22;5026422;28;20486;-73
2023/10/24 03:45:43;;;;;;;17.13;4.28;;;;;;;11.06;100.00;100085.09;5028397;28;20026;-73
2023/10/24 03:48:09;;;;;;;13.85;4.88;;;;;;;11.05;100.00;100087.91;5034287;28;20099;-73
2023/10/24 03:50:38;;;;;;;13.90;4.35;;;;;;;11.06;100.00;100089.63;5027986;28;20173;-73
2023/10/24 03:53:04;;;;;;;15.02;5.25;;;;;;;11.04;100.00;100084.38;5032470;28;20040;-73
2023/10/24 03:55:30;;;;;;;14.43;4.75;;;;;;;11.05;100.00;100094.13;5026346;28;20044;-73
2023/10/24 03:57:56;;;;;;;13.65;5.05;;;;;;;11.03;100.00;100088.06;5027847;28;20507;-73
2023/10/24 04:00:22;;;;;;;15.93;5.13;;;;;;;11.04;100.00;100105.03;4998244;28;20406;-74
2023/10/24 04:02:50;;;;;;;13.50;4.50;;;;;;;11.02;100.00;100099.78;5007016;28;20030;-75
2023/10/24 04:05:16;;;;;;;14.10;4.80;;;;;;;10.99;100.00;100094.69;5007950;28;20022;-75
2023/10/24 04:07:41;;;;;;;17.10;5.38;;;;;;;11.00;100.00;100093.69;5010534;28;20038;-75
2023/10/24 04:10:07;;;;;;;15.75;5.13;;;;;;;11.01;100.00;100098.06;4993922;28;20578;-75
2023/10/24 04:12:32;;;;;;;12.80;4.60;;;;;;;11.01;100.00;100093.56;4995455;28;20117;-75
2023/10/24 04:14:58;;;;;;;14.43;4.82;;;;;;;11.00;100.00;100093.69;5012273;28;20397;-74
2023/10/24 04:17:23;;;;;;;14.38;5.63;;;;;;;10.98;100.00;100088.47;4999743;28;20038;-74
2023/10/24 04:19:48;;;;;;;16.23;4.70;;;;;;;10.97;100.00;100086.75;5001930;28;20034;-74
2023/10/24 04:22:14;;;;;;;16.02;5.45;;;;;;;10.96;100.00;100079.66;5005861;28;20053;-75
2023/10/24 04:24:39;;;;;;;15.90;5.53;;;;;;;10.96;100.00;100076.13;5007359;28;20045;-75
2023/10/24 04:27:07;;;;;;;15.20;5.03;;;;;;;10.97;100.00;100075.16;5010365;28;20115;-74
2023/10/24 04:29:32;;;;;;;15.43;5.13;;;;;;;10.96;100.00;100060.00;5008878;28;20037;-75
2023/10/24 04:31:58;;;;;;;16.77;5.03;;;;;;;10.99;100.00;100057.03;5008430;28;20392;-75
2023/10/24 04:34:23;;;;;;;13.45;4.82;;;;;;;10.96;100.00;100052.78;5009570;28;20478;-75
2023/10/24 04:36:49;;;;;;;14.55;5.38;;;;;;;10.97;100.00;100048.25;5010934;28;20037;-75
2023/10/24 04:39:15;;;;;;;16.65;4.97;;;;;;;10.97;100.00;100056.34;5008722;28;20018;-75
2023/10/24 04:41:40;;;;;;;11.88;4.45;;;;;;;10.97;100.00;100051.78;5016111;28;20384;-75
2023/10/24 04:44:06;;;;;;;15.27;4.35;;;;;;;10.97;100.00;100046.41;5008476;28;20386;-75
2023/10/24 04:46:31;;;;;;;15.55;5.35;;;;;;;10.96;100.00;100052.78;5000410;28;20105;-75
2023/10/24 04:48:56;;;;;;;17.63;5.80;;;;;;;10.95;100.00;100050.22;5007341;28;20037;-74
2023/10/24 04:51:22;;;;;;;16.45;5.10;;;;;;;10.95;100.00;100060.97;5002011;28;20032;-75
2023/10/24 04:53:47;;;;;;;14.63;5.22;;;;;;;10.95;100.00;100058.28;5008597;28;20029;-75
2023/10/24 04:56:12;;;;;;;17.55;5.38;;;;;;;10.92;100.00;100064.81;5001379;28;20431;-74
2023/10/24 04:58:38;;;;;;;14.55;5.32;;;;;;;10.91;100.00;100065.78;4998245;28;20021;-75
2023/10/24 05:01:03;;;;;;;16.95;5.93;;;;;;;10.90;100.00;100065.91;5009439;28;20112;-75
2023/10/24 05:03:28;;;;;;;19.02;5.97;;;;;;;10.92;100.00;100058.56;5009500;28;20446;-74
2023/10/24 05:05:54;;;;;;;14.48;5.47;;;;;;;10.91;100.00;100070.28;5006320;28;20151;-75
2023/10/24 05:08:19;;;;;;;13.57;4.85;;;;;;;10.90;100.00;100064.06;5009710;28;20058;-74
2023/10/24 05:10:46;;;;;;;14.20;5.25;;;;;;;10.91;100.00;100067.59;5023536;28;20399;-71
2023/10/24 05:13:12;;;;;;;13.32;4.53;;;;;;;10.92;100.00;100072.00;5006414;28;20021;-71
2023/10/24 05:15:37;;;;;;;16.58;5.65;;;;;;;10.92;100.00;100072.00;5016234;28;20068;-70
2023/10/24 05:18:02;;;;;;;13.65;5.10;;;;;;;10.92;100.00;100069.31;5016358;28;20050;-71
2023/10/24 05:20:27;;;;;;;17.95;5.78;;;;;;;10.93;100.00;100069.19;5010805;28;20030;-70
2023/10/24 05:22:53;;;;;;;15.43;5.47;;;;;;;10.94;100.00;100070.03;5013172;28;20018;-70
2023/10/24 05:25:18;;;;;;;12.05;4.47;;;;;;;10.93;100.00;100071.03;5014661;28;20026;-72
2023/10/24 05:27:43;;;;;;;12.27;4.50;;;;;;;10.93;100.00;100074.56;5015931;28;20064;-70
2023/10/24 05:30:12;;;;;;;13.63;4.43;;;;;;;10.93;100.00;100062.97;5022075;28;20022;-70
2023/10/24 05:32:37;;;;;;;12.07;4.30;;;;;;;10.92;100.00;100059.44;4998885;28;20467;-71
2023/10/24 05:35:03;;;;;;;13.38;4.65;;;;;;;10.93;100.00;100041.44;5015595;28;20034;-71
2023/10/24 05:37:28;;;;;;;14.65;4.50;;;;;;;10.94;100.00;100040.47;5004514;28;20022;-70
2023/10/24 05:39:54;;;;;;;12.63;4.53;;;;;;;10.95;100.00;100039.47;5017845;28;20152;-71
2023/10/24 05:42:19;;;;;;;12.52;4.53;;;;;;;10.92;100.00;100035.22;4995149;28;20026;-71
2023/10/24 05:44:45;;;;;;;12.45;4.30;;;;;;;10.93;100.00;100036.91;5014360;28;20025;-71
2023/10/24 05:47:10;;;;;;;13.40;4.63;;;;;;;10.95;100.00;100047.53;5013947;28;20417;-71
2023/10/24 05:49:35;;;;;;;13.73;4.32;;;;;;;10.92;100.00;100055.88;4998292;28;20049;-71
2023/10/24 05:52:01;;;;;;;15.50;4.50;;;;;;;10.94;100.00;100059.28;5001480;28;20136;-72
2023/10/24 05:54:26;;;;;;;13.18;4.57;;;;;;;10.93;100.00;100058.41;5007502;28;20498;-71
2023/10/24 05:56:51;;;;;;;13.45;4.30;;;;;;;10.94;100.00;100059.28;5015918;28;20018;-71
2023/10/24 05:59:16;;;;;;;14.27;4.57;;;;;;;10.94;100.00;100059.28;5018664;28;20052;-71
2023/10/24 06:01:42;;;;;;;13.23;4.50;;;;;;;10.92;100.00;100061.25;5016436;28;20459;-71
2023/10/24 06:04:07;;;;;;;14.75;4.88;;;;;;;10.94;100.00;100065.50;5015886;28;20060;-71
2023/10/24 06:06:33;;;;;;;13.82;4.53;;;;;;;10.93;100.00;100063.78;5009250;28;20491;-72
2023/10/24 06:08:58;;;;;;;11.60;4.22;;;;;;;10.94;100.00;100078.13;5014371;28;20434;-71
2023/10/24 06:11:24;;;;;;;13.73;4.25;;;;;;;10.91;100.00;100079.22;5007119;28;20388;-71
2023/10/24 06:13:49;;;;;;;12.13;4.53;;;;;;;10.91;100.00;100072.97;5008660;28;20529;-70
2023/10/24 06:16:18;;;;;;;13.40;4.50;;;;;;;10.90;100.00;100065.91;4992914;28;20018;-71
2023/10/24 06:18:43;;;;;;;12.15;4.40;;;;;;;10.89;100.00;100054.28;5009316;28;20468;-71
2023/10/24 06:21:11;;;;;;;8.98;3.67;;;;;;;10.89;100.00;100056.13;5008483;28;20100;-71
2023/10/24 06:23:37;;;;;;;12.23;4.07;;;;;;;10.89;100.00;100046.22;5009167;28;20098;-71
2023/10/24 06:26:03;;;;;;;12.75;4.20;;;;;;;10.89;100.00;100048.91;5008476;28;20030;-71
2023/10/24 06:28:28;;;;;;;9.45;3.85;;;;;;;10.86;100.00;100040.28;4991966;28;20034;-70
2023/10/24 06:30:58;;;;;;;11.27;3.58;;;;;;;10.89;100.00;100056.13;5007175;28;20034;-71
2023/10/24 06:33:25;;;;;;;12.10;4.15;;;;;;;10.88;100.00;100066.06;5003058;28;20045;-71
2023/10/24 06:35:50;;;;;;;10.52;3.80;;;;;;;10.90;100.00;100068.59;5011051;28;20028;-69
2023/10/24 06:38:15;;;;;;;12.48;4.00;;;;;;;10.90;100.00;100071.28;5016126;28;20053;-71
2023/10/24 06:40:45;;;;;;;12.35;3.78;;;;;;;10.91;100.00;100086.41;5003390;28;20028;-72
2023/10/24 06:43:11;;;;;;;15.07;4.10;;;;;;;10.91;100.00;100086.41;5020269;28;20129;-70
2023/10/24 06:45:36;;;;;;;14.02;4.68;;;;;;;10.90;100.00;100099.03;5014442;28;20058;-71
2023/10/24 06:48:01;;;;;;;15.95;4.43;;;;;;;10.93;100.00;100104.13;5011939;28;20033;-72
2023/10/24 06:50:27;;;;;;;14.88;4.75;;;;;;;10.93;100.00;100092.53;5017127;28;20104;-71
2023/10/24 06:52:52;;;;;;;15.02;4.80;;;;;;;10.92;100.00;100074.69;5024024;28;20024;-71
2023/10/24 06:55:17;;;;;;;16.48;5.22;;;;;;;10.90;100.00;100082.88;5025691;28;20463;-71
2023/10/24 06:57:43;;;;;;;14.77;4.85;;;;;;;10.91;100.00;100075.66;5023282;28;20037;-71
2023/10/24 07:00:08;;;;;;;17.55;5.07;;;;;;;10.92;100.00;100074.69;5003232;28;20097;-70
2023/10/24 07:02:34;;;;;;;16.40;5.45;;;;;;;10.93;100.00;100071.88;5015170;28;20072;-71
2023/10/24 07:05:00;;;;;;;14.80;5.03;;;;;;;10.95;100.00;100072.59;5016210;28;20038;-71
2023/10/24 07:07:25;;;;;;;15.02;4.78;;;;;;;10.95;100.00;100066.34;5010460;28;20802;-71
2023/10/24 07:09:51;;;;;;;17.77;5.75;;;;;;;10.96;100.00;100065.38;5014014;28;20208;-70
2023/10/24 07:12:16;;;;;;;14.10;5.50;;;;;;;10.95;100.00;100064.53;5013216;28;20049;-73
2023/10/24 07:14:41;;;;;;;16.45;5.00;;;;;;;10.97;100.00;100064.41;5009886;28;20505;-72
2023/10/24 07:17:07;;;;;;;15.98;5.25;;;;;;;10.97;100.00;100062.56;5012782;28;20022;-70
2023/10/24 07:19:32;;;;;;;16.77;5.75;;;;;;;10.98;100.00;100060.69;5014763;28;20435;-71
2023/10/24 07:21:57;;;;;;;16.95;5.72;;;;;;;10.97;100.00;100059.84;5005395;28;20038;-70
2023/10/24 07:24:22;;;;;;;18.65;6.30;;;;;;;10.96;100.00;100062.69;5014637;28;20026;-71
2023/10/24 07:26:48;;;;;;;18.63;5.80;;;;;;;10.98;100.00;100066.94;5019060;28;20025;-71
2023/10/24 07:29:13;;;;;;;16.13;6.00;;;;;;;11.00;100.00;100072.19;5025497;28;20125;-70
2023/10/24 07:31:38;;;;;;;18.00;6.43;;;;;;;11.04;100.00;100075.44;5015966;28;20026;-71
2023/10/24 07:34:04;;;;;;;15.65;5.72;;;;;;;11.04;100.00;100081.69;5019368;28;20030;-71
2023/10/24 07:36:31;;;;;;;16.38;5.40;;;;;;;11.04;100.00;100078.13;5014424;28;20037;-71
2023/10/24 07:39:00;;;;;;;17.90;5.97;;;;;;;11.05;100.00;100067.25;5009571;28;20037;-71
2023/10/24 07:41:25;;;;;;;17.55;6.18;;;;;;;11.08;100.00;100071.50;5019467;28;20394;-71
2023/10/24 07:43:51;;;;;;;18.08;6.63;;;;;;;11.09;100.00;100068.69;5017048;28;20037;-72
2023/10/24 07:46:17;;;;;;;17.27;6.30;;;;;;;11.12;100.00;100065.72;5017066;28;20060;-72
2023/10/24 07:48:42;;;;;;;15.88;5.50;;;;;;;11.13;100.00;100062.06;5003354;28;20818;-71
2023/10/24 07:51:10;;;;;;;18.20;6.82;;;;;;;11.14;100.00;100066.47;5017912;28;20379;-70
2023/10/24 07:53:36;;;;;;;18.20;6.53;;;;;;;11.15;100.00;100065.44;5007116;28;20026;-71
2023/10/24 07:56:04;;;;;;;20.08;6.22;;;;;;;11.19;100.00;100064.19;5019828;28;20113;-73
2023/10/24 07:58:29;;;;;;;17.42;6.32;;;;;;;11.19;100.00;100053.44;5024683;28;20089;-71
2023/10/24 08:00:54;;;;;;;16.52;6.15;;;;;;;11.22;100.00;100056.84;5017901;28;20164;-71
2023/10/24 08:03:20;;;;;;;18.52;6.35;;;;;;;11.22;100.00;100062.25;5017024;28;20057;-71
2023/10/24 08:05:46;;;;;;;20.02;6.57;;;;;;;11.19;100.00;100053.44;5028321;28;20026;-71
2023/10/24 08:08:12;;;;;;;17.40;6.10;;;;;;;11.21;100.00;100056.00;5014883;28;20022;-70
2023/10/24 08:10:38;;;;;;;19.38;6.82;;;;;;;11.22;100.00;100056.84;5012445;28;20025;-71
2023/10/24 08:13:03;;;;;;;20.05;6.53;;;;;;;11.26;100.00;100059.13;5014963;28;20030;-71
2023/10/24 08:15:28;;;;;;;18.63;6.65;;;;;;;11.28;100.00;100067.06;5007221;28;20044;-71
2023/10/24 08:17:54;;;;;;;20.17;7.10;;;;;;;11.33;100.00;100064.81;5002964;28;20068;-70
2023/10/24 08:20:20;;;;;;;18.65;6.97;;;;;;;11.35;100.00;100063.69;5009771;28;20554;-70
2023/10/24 08:22:46;;;;;;;21.55;7.15;;;;;;;11.39;100.00;100064.28;5016397;28;20030;-70
2023/10/24 08:25:12;;;;;;;17.52;6.53;;;;;;;11.43;100.00;100065.69;5023328;28;20128;-73
2023/10/24 08:27:37;;;;;;;17.60;6.32;;;;;;;11.48;100.00;100067.94;5024590;28;20026;-71
2023/10/24 08:30:03;;;;;;;17.20;6.40;;;;;;;11.50;100.00;100074.91;5017038;28;20088;-71
2023/10/24 08:32:29;;;;;;;16.77;6.45;;;;;;;11.53;100.00;100063.88;5025816;28;20554;-71
2023/10/24 08:34:55;;;;;;;17.40;5.50;;;;;;;11.57;100.00;100072.53;5017245;28;20053;-71
2023/10/24 08:37:20;;;;;;;16.77;5.80;;;;;;;11.61;100.00;100089.25;5017459;28;20061;-71
2023/10/24 08:39:46;;;;;;;14.23;5.47;;;;;;;11.63;100.00;100098.03;5020857;28;20034;-73
2023/10/24 08:42:13;;;;;;;17.23;5.72;;;;;;;11.65;100.00;100094.19;5020059;28;20034;-73
2023/10/24 08:44:40;;;;;;;18.00;6.38;;;;;;;11.66;100.00;100098.59;5019488;28;20029;-73
2023/10/24 08:47:06;;;;;;;16.75;6.15;;;;;;;11.70;100.00;100094.66;5015404;28;20045;-73
2023/10/24 08:49:32;;;;;;;16.75;6.10;;;;;;;11.73;100.00;100107.00;5013713;28;20030;-73
2023/10/24 08:51:57;;;;;;;16.52;5.95;;;;;;;11.73;100.00;100093.53;5013413;28;20037;-73
2023/10/24 08:54:22;;;;;;;15.20;5.22;;;;;;;11.75;100.00;100088.84;5019127;28;20030;-73
2023/10/24 08:56:51;;;;;;;17.73;5.72;;;;;;;11.77;100.00;100091.41;5018322;28;20034;-73
2023/10/24 08:59:18;;;;;;;14.50;5.40;;;;;;;11.77;100.00;100083.31;5004229;28;20046;-73
2023/10/24 09:01:44;;;;;;;15.30;5.22;;;;;;;11.75;100.00;100086.16;4998857;28;20125;-73
2023/10/24 09:04:10;;;;;;;15.25;5.03;;;;;;;11.77;100.00;100084.19;4998247;28;20041;-73
2023/10/24 09:06:36;;;;;;;16.25;5.20;;;;;;;11.78;100.00;100080.50;4996743;28;20040;-73
2023/10/24 09:09:02;;;;;;;16.33;6.03;;;;;;;11.79;100.00;100073.28;4996251;28;20026;-73
2023/10/24 09:11:55;;;;;;;19.23;6.93;;;;;;;11.81;100.00;100077.50;5005594;28;20034;-73
2023/10/24 09:14:21;;;;;;;17.73;7.03;;;;;;;11.81;100.00;100082.06;4996839;28;20134;-73
2023/10/24 09:17:00;;;;;;;18.58;7.28;;;;;;;11.80;100.00;100073.16;4994259;28;20480;-74
2023/10/24 09:19:27;;;;;;;20.85;7.88;;;;;;;11.84;100.00;100068.31;4997221;28;20034;-73
2023/10/24 09:21:53;;;;;;;22.05;9.38;;;;;;;11.86;100.00;100059.13;4994692;28;20030;-74
2023/10/24 09:24:19;;;;;;;20.15;8.82;;;;;;;11.88;100.00;100067.88;5011398;28;20032;-73
2023/10/24 09:26:55;;;;;;;19.50;8.23;;;;;;;11.91;100.00;100053.31;4997418;28;20142;-73
2023/10/24 09:29:21;;;;;;;20.92;8.77;;;;;;;11.92;100.00;100054.16;4996578;28;20027;-73
2023/10/24 09:31:50;;;;;;;19.92;8.48;;;;;;;11.95;100.00;100052.06;4994745;28;20109;-73
2023/10/24 09:34:16;;;;;;;19.60;8.20;;;;;;;12.00;100.00;100054.34;5010284;28;20068;-73
2023/10/24 09:36:43;;;;;;;18.52;7.18;;;;;;;12.03;100.00;100062.97;4996046;28;20392;-73
2023/10/24 09:39:10;;;;;;;19.45;6.30;;;;;;;12.07;100.00;100060.84;4992555;28;20125;-73
2023/10/24 09:41:35;;;;;;;18.83;6.57;;;;;;;12.12;100.00;100077.44;4994234;28;20045;-73
2023/10/24 09:44:02;;;;;;;19.33;6.53;;;;;;;12.19;100.00;100062.41;5012063;28;20038;-73
2023/10/24 09:46:28;;;;;;;17.17;5.82;;;;;;;12.21;100.00;100062.25;5010380;28;20522;-74
2023/10/24 09:48:55;;;;;;;18.40;6.53;;;;;;;12.23;100.00;100058.44;5009929;28;20046;-73
2023/10/24 09:51:22;;;;;;;14.80;5.85;;;;;;;12.24;100.00;100045.84;5009407;28;20034;-73
2023/10/24 09:53:49;;;;;;;16.33;5.75;;;;;;;12.23;100.00;100042.28;4993384;28;20026;-73
2023/10/24 09:56:15;;;;;;;18.10;6.25;;;;;;;12.23;100.00;100046.81;4995469;28;20027;-73
2023/10/24 09:58:42;;;;;;;18.58;6.53;;;;;;;12.23;100.00;100052.22;4998855;28;20046;-73
2023/10/24 10:01:09;;;;;;;15.27;6.20;;;;;;;12.24;100.00;100048.53;5008897;28;20037;-72
2023/10/24 10:03:35;;;;;;;14.52;5.45;;;;;;;12.26;100.00;100046.53;5009104;28;20037;-72
2023/10/24 10:06:05;;;;;;;16.20;6.18;;;;;;;12.27;100.00;100048.25;5006260;28;20499;-72
2023/10/24 10:08:34;;;;;;;15.63;5.47;;;;;;;12.27;100.00;100048.25;5003032;28;20068;-72
2023/10/24 10:11:01;;;;;;;17.30;6.13;;;;;;;12.28;100.00;100060.69;5011993;28;20021;-71
2023/10/24 10:13:30;;;;;;;15.90;5.25;;;;;;;12.29;100.00;100056.19;5017610;28;20050;-71
2023/10/24 10:15:58;;;;;;;15.35;5.70;;;;;;;12.31;100.00;100056.88;5018169;28;20168;-71
2023/10/24 10:18:39;;;;;;;17.75;5.70;;;;;;;12.30;100.00;100063.25;5020347;28;20036;-70
2023/10/24 10:21:36;;;;;;;17.55;6.25;;;;;;;12.31;100.00;100071.19;5015304;28;20028;-72
2023/10/24 10:24:24;;;;;;;20.23;6.80;;;;;;;12.31;100.00;100073.03;5017619;28;20026;-72
2023/10/24 10:27:19;;;;;;;15.20;5.95;;;;;;;12.30;100.00;100074.91;5031857;28;20037;-71
2023/10/24 10:30:03;;;;;;;23.55;6.15;;;;;;;12.29;100.00;100069.66;5018662;28;20096;-71
2023/10/24 10:33:01;;;;;;;16.45;6.30;;;;;;;12.28;100.00;100070.63;5002419;28;20265;-71
2023/10/24 10:35:53;;;;;;;16.00;5.57;;;;;;;12.24;100.00;100062.84;5018171;28;20177;-70
2023/10/24 10:38:24;;;;;;;16.27;6.25;;;;;;;12.24;100.00;100057.44;5014151;28;20029;-72
2023/10/24 10:40:49;;;;;;;17.27;5.35;;;;;;;12.22;100.00;100053.19;5016926;28;20029;-72
2023/10/24 10:43:29;;;;;;;18.08;6.10;;;;;;;12.23;100.00;100053.03;5016585;28;20022;-71
2023/10/24 10:46:16;;;;;;;17.90;6.15;;;;;;;12.21;100.00;100060.44;5011830;28;20137;-71
2023/10/24 10:48:42;;;;;;;16.38;5.80;;;;;;;12.19;100.00;100048.94;5005383;28;20025;-72
2023/10/24 10:51:08;;;;;;;16.27;6.30;;;;;;;12.16;100.00;100046.53;5020459;28;20026;-71
2023/10/24 10:53:55;;;;;;;17.65;6.18;;;;;;;12.18;100.00;100049.06;5020768;28;20044;-72
2023/10/24 10:56:24;;;;;;;17.25;6.22;;;;;;;12.16;100.00;100051.06;5021284;28;20058;-72
2023/10/24 10:59:06;;;;;;;;;;;;;;;12.19;100.00;100050.78;5016889;28;20030;-73
2023/10/24 11:01:55;;;;;;;19.65;6.80;;;;;;;12.11;100.00;100047.94;5008840;28;19968;-71
2023/10/24 11:04:20;;;;;;;18.40;6.90;;;;;;;12.07;100.00;100047.38;5017355;28;20030;-70
2023/10/24 11:06:53;;;;;;;16.55;6.65;;;;;;;12.02;100.00;100050.50;5007995;28;20130;-71
2023/10/24 11:09:38;;;;;;;19.05;6.45;;;;;;;11.98;100.00;100061.72;5016118;28;20072;-71